createdAt,value
2023-08-16T00:00:20.723Z,89.22
2023-08-16T00:03:00.794Z,88.97
2023-08-16T00:05:44.257Z,88.86
2023-08-16T00:08:24.629Z,88.87
2023-08-16T00:11:04.986Z,88.60
2023-08-16T00:13:45.341Z,88.74
2023-08-16T00:16:25.827Z,88.50
2023-08-16T00:19:06.052Z,88.59
2023-08-16T00:21:46.214Z,91.44
2023-08-16T00:24:26.528Z,90.69
2023-08-16T00:27:06.849Z,91.78
2023-08-16T00:29:49.787Z,91.75
2023-08-16T00:32:30.181Z,91.60
2023-08-16T00:35:10.741Z,91.98
2023-08-16T00:37:50.908Z,91.16
2023-08-16T00:40:30.879Z,90.90
2023-08-16T00:43:10.741Z,90.41
2023-08-16T00:45:51.385Z,90.67
2023-08-16T00:48:35.831Z,89.93
2023-08-16T00:51:15.966Z,90.16
2023-08-16T00:53:56.215Z,89.83
2023-08-16T00:56:36.916Z,90.60
2023-08-16T00:59:17.228Z,91.04
2023-08-16T01:01:57.808Z,90.52
2023-08-16T01:04:38.193Z,90.42
2023-08-16T01:07:18.280Z,91.16
2023-08-16T01:09:58.287Z,92.09
2023-08-16T01:12:47.539Z,91.33
2023-08-16T01:15:33.383Z,91.61
2023-08-16T01:18:14.441Z,91.36
2023-08-16T01:20:56.787Z,90.95
2023-08-16T01:24:12.765Z,90.26
2023-08-16T01:26:54.333Z,91.44
2023-08-16T01:29:35.896Z,91.21
2023-08-16T01:32:17.098Z,90.67
2023-08-16T01:34:57.127Z,90.91
2023-08-16T01:37:37.172Z,92.31
2023-08-16T01:40:19.440Z,91.46
2023-08-16T01:43:01.051Z,91.16
2023-08-16T01:45:41.321Z,91.14
2023-08-16T01:48:24.378Z,92.35
2023-08-16T01:51:04.984Z,94.18
2023-08-16T01:53:52.038Z,94.80
2023-08-16T01:56:32.101Z,93.73
2023-08-16T01:59:12.052Z,93.46
2023-08-16T02:01:52.124Z,93.99
2023-08-16T02:04:32.483Z,95.74
2023-08-16T02:07:12.960Z,94.90
2023-08-16T02:09:53.036Z,95.36
2023-08-16T02:12:34.390Z,96.93
2023-08-16T02:15:15.918Z,99.32
2023-08-16T02:17:56.338Z,98.59
2023-08-16T02:20:36.596Z,99.82
2023-08-16T02:23:16.611Z,100.00
2023-08-16T02:25:56.800Z,100.00
2023-08-16T02:28:37.182Z,100.00
2023-08-16T02:31:18.060Z,98.91
2023-08-16T02:33:58.563Z,99.32
2023-08-16T02:36:38.761Z,98.90
2023-08-16T02:39:18.747Z,98.69
2023-08-16T02:41:59.140Z,98.61
2023-08-16T02:44:39.517Z,98.72
2023-08-16T02:47:19.489Z,97.85
2023-08-16T02:49:59.854Z,97.37
2023-08-16T02:52:40.330Z,97.06
2023-08-16T02:55:20.469Z,96.75
2023-08-16T02:58:00.781Z,96.74
2023-08-16T03:00:41.023Z,96.88
2023-08-16T03:03:22.001Z,97.67
2023-08-16T03:06:02.349Z,98.08
2023-08-16T03:08:42.665Z,98.93
2023-08-16T03:11:23.078Z,100.00
2023-08-16T03:14:03.185Z,99.47
2023-08-16T03:16:43.727Z,99.73
2023-08-16T03:19:23.979Z,99.39
2023-08-16T03:22:04.260Z,100.00
2023-08-16T03:24:44.770Z,100.00
2023-08-16T03:27:24.870Z,100.00
2023-08-16T03:30:06.538Z,99.73
2023-08-16T03:32:46.873Z,99.30
2023-08-16T03:35:26.968Z,100.00
2023-08-16T03:38:06.973Z,100.00
2023-08-16T03:40:47.420Z,100.00
2023-08-16T03:43:30.133Z,100.00
2023-08-16T03:46:10.322Z,100.00
2023-08-16T03:48:50.806Z,100.00
2023-08-16T03:51:31.984Z,100.00
2023-08-16T03:54:12.425Z,100.00
2023-08-16T03:56:52.413Z,100.00
2023-08-16T03:59:32.472Z,100.00
2023-08-16T04:02:12.903Z,100.00
2023-08-16T04:04:56.934Z,100.00
2023-08-16T04:07:37.255Z,100.00
2023-08-16T04:10:17.290Z,100.00
2023-08-16T04:12:57.356Z,100.00
2023-08-16T04:15:37.262Z,100.00
2023-08-16T04:18:17.594Z,100.00
2023-08-16T04:20:58.140Z,100.00
2023-08-16T04:23:38.476Z,100.00
2023-08-16T04:26:18.729Z,100.00
2023-08-16T04:28:59.102Z,100.00
2023-08-16T04:31:39.200Z,100.00
2023-08-16T04:34:19.515Z,100.00
2023-08-16T04:36:59.505Z,100.00
2023-08-16T04:39:39.673Z,100.00
2023-08-16T04:42:20.254Z,100.00
2023-08-16T04:45:01.231Z,100.00
2023-08-16T04:47:41.533Z,100.00
2023-08-16T04:50:21.843Z,100.00
2023-08-16T04:53:02.435Z,100.00
2023-08-16T04:55:42.300Z,100.00
2023-08-16T04:58:22.325Z,100.00
2023-08-16T05:01:02.421Z,100.00
2023-08-16T05:03:51.211Z,100.00
2023-08-16T05:06:33.386Z,100.00
2023-08-16T05:09:13.721Z,100.00
2023-08-16T05:11:53.985Z,100.00
2023-08-16T05:14:34.233Z,100.00
2023-08-16T05:17:14.516Z,100.00
2023-08-16T05:19:54.441Z,100.00
2023-08-16T05:22:34.774Z,100.00
2023-08-16T05:25:15.278Z,100.00
2023-08-16T05:27:59.647Z,100.00
2023-08-16T05:30:39.960Z,100.00
2023-08-16T05:33:20.423Z,100.00
2023-08-16T05:36:00.639Z,100.00
2023-08-16T05:38:40.484Z,100.00
2023-08-16T05:41:20.875Z,100.00
2023-08-16T05:44:00.927Z,100.00
2023-08-16T05:46:41.344Z,100.00
2023-08-16T05:49:21.631Z,100.00
2023-08-16T05:52:02.038Z,100.00
2023-08-16T05:54:42.222Z,100.00
2023-08-16T05:57:22.574Z,99.47
2023-08-16T06:00:03.955Z,98.00
2023-08-16T06:02:44.172Z,98.21
2023-08-16T06:05:24.218Z,97.29
2023-08-16T06:08:05.641Z,95.63
2023-08-16T06:10:46.214Z,93.96
2023-08-16T06:13:26.527Z,93.65
2023-08-16T06:16:06.666Z,93.20
2023-08-16T06:18:46.635Z,93.17
2023-08-16T06:21:26.654Z,93.55
2023-08-16T06:24:07.556Z,92.78
2023-08-16T06:26:47.611Z,91.87
2023-08-16T06:29:27.916Z,92.17
2023-08-16T06:32:08.396Z,91.86
2023-08-16T06:34:48.636Z,90.93
2023-08-16T06:37:28.714Z,92.66
2023-08-16T06:40:10.454Z,93.05
2023-08-16T06:42:50.996Z,92.66
2023-08-16T06:45:31.264Z,92.36
2023-08-16T06:48:11.871Z,91.34
2023-08-16T06:50:51.843Z,90.20
2023-08-16T06:53:34.369Z,90.18
2023-08-16T06:56:14.692Z,89.17
2023-08-16T06:58:54.604Z,89.37
2023-08-16T07:01:35.012Z,90.51
2023-08-16T07:04:15.089Z,89.80
2023-08-16T07:06:55.062Z,90.12
2023-08-16T07:09:34.967Z,88.31
2023-08-16T07:12:15.682Z,89.04
2023-08-16T07:14:56.695Z,90.53
2023-08-16T07:17:36.570Z,88.40
2023-08-16T07:20:16.941Z,88.01
2023-08-16T07:22:59.627Z,86.07
2023-08-16T07:25:39.766Z,86.50
2023-08-16T07:28:20.050Z,85.13
2023-08-16T07:31:00.486Z,83.25
2023-08-16T07:33:41.854Z,82.16
2023-08-16T07:36:22.152Z,79.69
2023-08-16T07:39:02.226Z,80.95
2023-08-16T07:41:42.334Z,83.16
2023-08-16T07:44:22.418Z,84.48
2023-08-16T07:47:02.569Z,83.88
2023-08-16T07:49:43.352Z,85.19
2023-08-16T07:52:24.072Z,84.85
2023-08-16T07:55:04.980Z,84.60
2023-08-16T07:57:44.992Z,86.07
2023-08-16T08:00:25.451Z,83.82
2023-08-16T08:03:06.508Z,85.39
2023-08-16T08:05:46.831Z,85.25
2023-08-16T08:08:26.742Z,85.86
2023-08-16T08:11:08.276Z,85.82
2023-08-16T08:13:48.674Z,86.43
2023-08-16T08:16:28.799Z,87.39
2023-08-16T08:19:08.980Z,87.79
2023-08-16T08:21:49.539Z,85.65
2023-08-16T08:24:29.800Z,85.71
2023-08-16T08:27:10.106Z,84.81
2023-08-16T08:29:51.243Z,83.47
2023-08-16T08:32:31.495Z,81.62
2023-08-16T08:35:11.886Z,82.51
2023-08-16T08:37:52.407Z,83.46
2023-08-16T08:40:32.874Z,80.71
2023-08-16T08:43:18.439Z,80.00
2023-08-16T08:45:59.909Z,77.42
2023-08-16T08:48:42.924Z,79.04
2023-08-16T08:51:24.984Z,80.74
2023-08-16T08:54:05.958Z,78.71
2023-08-16T08:56:46.748Z,78.73
2023-08-16T08:59:29.779Z,77.56
2023-08-16T09:02:11.742Z,76.42
2023-08-16T09:04:53.877Z,76.96
2023-08-16T09:07:35.610Z,78.04
2023-08-16T09:10:17.765Z,78.34
2023-08-16T09:12:57.897Z,78.57
2023-08-16T09:15:38.626Z,77.20
2023-08-16T09:18:22.432Z,77.10
2023-08-16T09:21:04.469Z,77.11
2023-08-16T09:23:44.849Z,74.75
2023-08-16T09:26:25.285Z,71.96
2023-08-16T09:29:05.659Z,72.77
2023-08-16T09:31:47.868Z,72.76
2023-08-16T09:37:13.865Z,70.84
2023-08-16T09:39:58.295Z,70.34
2023-08-16T09:42:38.565Z,69.64
2023-08-16T09:45:55.306Z,70.29
2023-08-16T09:48:36.017Z,70.61
2023-08-16T09:51:16.497Z,69.65
2023-08-16T09:53:57.952Z,70.60
2023-08-16T09:56:38.904Z,71.48
2023-08-16T10:07:30.827Z,71.52
2023-08-16T10:10:11.586Z,74.20
2023-08-16T10:12:52.863Z,75.48
2023-08-16T10:15:34.931Z,74.07
2023-08-16T10:18:18.132Z,73.12
2023-08-16T10:21:01.108Z,74.38
2023-08-16T10:23:42.464Z,73.39
2023-08-16T10:26:24.691Z,73.96
2023-08-16T10:31:56.037Z,68.60
2023-08-16T10:34:37.219Z,69.85
2023-08-16T10:37:18.740Z,65.65
2023-08-16T10:40:12.098Z,67.06
2023-08-16T10:43:01.116Z,65.09
2023-08-16T10:45:54.369Z,61.71
2023-08-16T10:48:38.159Z,60.58
2023-08-16T10:51:18.662Z,60.91
2023-08-16T10:53:59.376Z,61.48
2023-08-16T10:56:48.693Z,61.21
2023-08-16T10:59:40.418Z,63.16
2023-08-16T11:02:31.867Z,65.01
2023-08-16T11:05:17.591Z,64.06
2023-08-16T11:08:00.864Z,62.68
2023-08-16T11:10:42.426Z,62.53
2023-08-16T11:13:22.528Z,62.29
2023-08-16T11:16:02.805Z,59.42
2023-08-16T11:18:44.037Z,57.35
2023-08-16T11:21:26.940Z,55.12
2023-08-16T11:24:10.728Z,57.08
2023-08-16T11:26:50.713Z,55.35
2023-08-16T11:29:30.774Z,56.44
2023-08-16T11:32:10.935Z,55.21
2023-08-16T11:34:51.555Z,56.18
2023-08-16T11:37:31.850Z,56.38
2023-08-16T11:40:12.095Z,55.92
2023-08-16T11:42:52.413Z,57.42
2023-08-16T11:45:32.626Z,55.56
2023-08-16T11:48:14.374Z,54.00
2023-08-16T11:50:54.282Z,52.50
2023-08-16T11:53:36.164Z,53.26
2023-08-16T11:56:16.198Z,51.16
2023-08-16T11:58:57.250Z,51.62
2023-08-16T12:01:40.940Z,48.00
2023-08-16T12:04:25.623Z,46.52
2023-08-16T12:07:10.931Z,48.74
2023-08-16T12:09:51.108Z,48.03
2023-08-16T12:12:34.723Z,47.02
2023-08-16T12:15:15.132Z,44.28
2023-08-16T12:17:56.529Z,43.09
2023-08-16T12:20:37.316Z,40.10
2023-08-16T12:23:18.534Z,38.17
2023-08-16T12:25:59.137Z,37.41
2023-08-16T12:28:39.798Z,35.11
2023-08-16T12:31:19.946Z,34.28
2023-08-16T12:34:00.495Z,34.69
2023-08-16T12:36:40.518Z,35.58
2023-08-16T12:39:20.825Z,36.14
2023-08-16T12:44:45.900Z,37.95
2023-08-16T12:47:26.551Z,38.09
2023-08-16T12:50:08.139Z,38.94
2023-08-16T12:52:48.134Z,39.12
2023-08-16T12:55:29.327Z,41.49
2023-08-16T12:58:21.497Z,42.60
2023-08-16T13:04:00.410Z,44.80
2023-08-16T13:06:52.546Z,45.83
2023-08-16T13:09:48.159Z,43.71
2023-08-16T13:12:33.394Z,44.19
2023-08-16T13:15:26.197Z,45.23
2023-08-16T13:20:58.949Z,42.82
2023-08-16T13:23:52.050Z,43.49
2023-08-16T13:27:00.092Z,41.38
2023-08-16T13:35:11.541Z,36.73
2023-08-16T13:37:58.363Z,36.13
2023-08-16T13:40:52.286Z,33.16
2023-08-16T13:43:43.680Z,32.74
2023-08-16T13:46:24.494Z,30.87
2023-08-16T13:49:04.904Z,30.37
2023-08-16T13:51:45.215Z,30.29
2023-08-16T13:54:25.478Z,30.73
2023-08-16T13:57:05.582Z,30.34
2023-08-16T13:59:46.572Z,30.34
2023-08-16T14:02:27.006Z,28.68
2023-08-16T14:05:07.804Z,28.92
2023-08-16T14:07:48.121Z,29.29
2023-08-16T14:10:28.304Z,28.90
2023-08-16T14:13:08.425Z,29.78
2023-08-16T14:15:53.308Z,28.40
2023-08-16T14:18:33.445Z,27.89
2023-08-16T14:21:13.901Z,27.36
2023-08-16T14:23:56.125Z,27.79
2023-08-16T14:26:36.537Z,28.51
2023-08-16T14:29:16.714Z,29.69
2023-08-16T14:31:56.790Z,31.87
2023-08-16T14:34:37.046Z,31.79
2023-08-16T14:37:17.296Z,32.94
2023-08-16T14:39:57.683Z,33.14
2023-08-16T14:42:38.302Z,34.89
2023-08-16T14:45:18.460Z,36.01
2023-08-16T14:47:58.960Z,36.05
2023-08-16T14:50:38.996Z,35.51
2023-08-16T14:53:18.862Z,35.98
2023-08-16T14:55:59.146Z,36.56
2023-08-16T14:58:42.765Z,36.17
2023-08-16T15:01:22.883Z,35.67
2023-08-16T15:04:03.009Z,37.41
2023-08-16T15:06:43.001Z,37.62
2023-08-16T15:09:22.988Z,39.32
2023-08-16T15:12:03.713Z,39.71
2023-08-16T15:14:43.666Z,39.15
2023-08-16T15:17:23.976Z,39.92
2023-08-16T15:20:06.209Z,38.65
2023-08-16T15:22:46.225Z,38.72
2023-08-16T15:25:26.548Z,40.22
2023-08-16T15:28:06.696Z,39.95
2023-08-16T15:30:53.424Z,40.77
2023-08-16T15:33:34.541Z,40.30
2023-08-16T15:36:14.856Z,40.55
2023-08-16T15:38:54.997Z,41.08
2023-08-16T15:41:35.548Z,41.34
2023-08-16T15:44:15.711Z,41.39
2023-08-16T15:46:56.183Z,39.81
2023-08-16T15:49:36.313Z,40.75
2023-08-16T15:52:16.539Z,41.41
2023-08-16T15:54:57.657Z,42.42
2023-08-16T15:57:37.590Z,42.31
2023-08-16T16:00:18.373Z,42.51
2023-08-16T16:02:58.781Z,42.05
2023-08-16T16:05:39.093Z,41.77
2023-08-16T16:08:19.811Z,40.71
2023-08-16T16:11:00.344Z,40.63
2023-08-16T16:13:40.339Z,40.49
2023-08-16T16:16:20.727Z,40.55
2023-08-16T16:19:00.900Z,41.71
2023-08-16T16:21:41.461Z,41.05
2023-08-16T16:24:22.011Z,42.26
2023-08-16T16:27:02.391Z,44.81
2023-08-16T16:29:42.360Z,44.19
2023-08-16T16:32:22.633Z,45.65
2023-08-16T16:35:03.523Z,46.70
2023-08-16T16:37:43.982Z,46.21
2023-08-16T16:40:24.317Z,48.31
2023-08-16T16:43:04.644Z,48.85
2023-08-16T16:45:44.612Z,48.61
2023-08-16T16:48:25.127Z,50.92
2023-08-16T16:51:05.454Z,52.52
2023-08-16T16:53:45.475Z,54.30
2023-08-16T16:56:25.751Z,52.73
2023-08-16T16:59:06.147Z,52.02
2023-08-16T17:01:46.531Z,54.05
2023-08-16T17:04:26.852Z,54.32
2023-08-16T17:07:09.127Z,54.47
2023-08-16T17:09:49.429Z,54.71
2023-08-16T17:12:29.411Z,55.45
2023-08-16T17:15:10.371Z,57.53
2023-08-16T17:17:50.334Z,57.93
2023-08-16T17:20:30.332Z,60.01
2023-08-16T17:23:10.580Z,59.21
2023-08-16T17:25:52.387Z,61.11
2023-08-16T17:28:32.577Z,61.79
2023-08-16T17:31:13.579Z,61.22
2023-08-16T17:33:54.950Z,61.68
2023-08-16T17:36:35.207Z,62.79
2023-08-16T17:39:15.194Z,62.76
2023-08-16T17:41:55.391Z,62.28
2023-08-16T17:44:35.527Z,64.44
2023-08-16T17:47:15.705Z,63.55
2023-08-16T17:49:55.702Z,63.20
2023-08-16T17:52:36.060Z,65.83
2023-08-16T17:55:16.114Z,66.21
2023-08-16T17:57:56.424Z,66.73
2023-08-16T18:00:37.686Z,68.18
2023-08-16T18:03:18.127Z,69.16
2023-08-16T18:05:58.799Z,68.73
2023-08-16T18:08:39.482Z,68.10
2023-08-16T18:11:19.767Z,67.75
2023-08-16T18:13:59.996Z,67.32
2023-08-16T18:16:40.909Z,67.72
2023-08-16T18:19:20.992Z,67.49
2023-08-16T18:22:00.966Z,67.52
2023-08-16T18:24:41.339Z,67.92
2023-08-16T18:27:21.632Z,67.92
2023-08-16T18:30:01.498Z,67.63
2023-08-16T18:32:42.310Z,67.96
2023-08-16T18:35:22.803Z,68.31
2023-08-16T18:38:03.473Z,68.13
2023-08-16T18:40:43.634Z,68.71
2023-08-16T18:43:23.654Z,68.80
2023-08-16T18:46:03.738Z,69.13
2023-08-16T18:48:44.170Z,69.48
2023-08-16T18:51:24.284Z,69.56
2023-08-16T18:54:04.923Z,69.56
2023-08-16T18:56:44.940Z,70.06
2023-08-16T18:59:26.384Z,71.25
2023-08-16T19:02:08.274Z,70.33
2023-08-16T19:04:48.453Z,70.68
2023-08-16T19:07:28.722Z,72.51
2023-08-16T19:10:09.331Z,72.71
2023-08-16T19:12:49.651Z,74.74
2023-08-16T19:15:29.957Z,74.37
2023-08-16T19:18:12.952Z,73.73
2023-08-16T19:20:57.413Z,73.48
2023-08-16T19:23:37.643Z,73.84
2023-08-16T19:26:17.784Z,74.07
2023-08-16T19:28:58.073Z,74.45
2023-08-16T19:31:39.049Z,76.12
2023-08-16T19:34:19.957Z,78.04
2023-08-16T19:37:00.150Z,77.69
2023-08-16T19:39:40.120Z,78.52
2023-08-16T19:42:20.350Z,77.58
2023-08-16T19:45:01.085Z,77.74
2023-08-16T19:47:41.544Z,77.86
2023-08-16T19:50:23.722Z,78.04
2023-08-16T19:53:03.854Z,79.23
2023-08-16T19:55:43.812Z,79.05
2023-08-16T19:58:24.673Z,79.14
2023-08-16T20:01:04.769Z,78.63
2023-08-16T20:03:44.718Z,78.75
2023-08-16T20:06:25.797Z,78.61
2023-08-16T20:09:06.417Z,79.44
2023-08-16T20:11:46.643Z,79.70
2023-08-16T20:14:26.865Z,81.10
2023-08-16T20:17:06.884Z,83.61
2023-08-16T20:19:46.845Z,84.90
2023-08-16T20:22:27.204Z,84.95
2023-08-16T20:25:07.700Z,85.89
2023-08-16T20:27:48.283Z,84.46
2023-08-16T20:30:28.701Z,83.32
2023-08-16T20:33:09.539Z,82.57
2023-08-16T20:35:49.795Z,82.14
2023-08-16T20:38:29.996Z,81.94
2023-08-16T20:41:10.050Z,83.07
2023-08-16T20:43:50.250Z,82.87
2023-08-16T20:46:38.091Z,81.20
2023-08-16T20:49:18.588Z,81.86
2023-08-16T20:51:58.919Z,81.47
2023-08-16T20:54:38.992Z,81.28
2023-08-16T20:57:19.720Z,81.22
2023-08-16T21:00:00.005Z,81.24
2023-08-16T21:02:40.395Z,81.03
2023-08-16T21:05:20.827Z,80.98
2023-08-16T21:08:01.129Z,80.85
2023-08-16T21:10:41.392Z,81.24
2023-08-16T21:13:21.809Z,80.91
2023-08-16T21:16:01.947Z,81.42
2023-08-16T21:18:41.761Z,81.36
2023-08-16T21:21:21.754Z,87.24
2023-08-16T21:24:01.730Z,91.55
2023-08-16T21:26:43.086Z,87.17
2023-08-16T21:29:23.286Z,89.49
2023-08-16T21:32:03.452Z,93.06
2023-08-16T21:34:43.853Z,95.85
2023-08-16T21:37:24.436Z,98.14
2023-08-16T21:40:05.590Z,97.72
2023-08-16T21:42:45.961Z,96.79
2023-08-16T21:45:26.232Z,95.45
2023-08-16T21:48:07.173Z,94.64
2023-08-16T21:50:47.357Z,93.93
2023-08-16T21:53:27.495Z,93.06
2023-08-16T21:56:08.073Z,92.63
2023-08-16T21:58:48.184Z,91.94
2023-08-16T22:01:28.119Z,91.95
2023-08-16T22:04:09.323Z,94.35
2023-08-16T22:06:49.458Z,96.20
2023-08-16T22:09:30.093Z,99.15
2023-08-16T22:12:10.637Z,99.18
2023-08-16T22:14:51.006Z,100.00
2023-08-16T22:17:31.139Z,100.00
2023-08-16T22:20:12.600Z,100.00
2023-08-16T22:22:52.729Z,100.00
2023-08-16T22:25:32.887Z,100.00
2023-08-16T22:28:12.879Z,100.00
2023-08-16T22:30:53.174Z,100.00
2023-08-16T22:33:33.228Z,100.00
2023-08-16T22:36:13.249Z,99.08
2023-08-16T22:38:53.425Z,98.49
2023-08-16T22:41:33.441Z,99.19
2023-08-16T22:44:13.504Z,98.67
2023-08-16T22:46:53.977Z,97.87
2023-08-16T22:49:34.193Z,97.50
2023-08-16T22:52:14.206Z,96.05
2023-08-16T22:54:54.439Z,97.00
2023-08-16T22:57:34.759Z,96.94
2023-08-16T23:00:15.224Z,97.29
2023-08-16T23:02:55.231Z,96.69
2023-08-16T23:05:35.765Z,98.20
2023-08-16T23:08:15.885Z,96.70
2023-08-16T23:10:56.401Z,96.09
2023-08-16T23:13:36.825Z,95.40
2023-08-16T23:16:17.354Z,96.10
2023-08-16T23:19:00.175Z,97.08
2023-08-16T23:21:40.430Z,97.77
2023-08-16T23:24:20.543Z,97.07
2023-08-16T23:27:00.559Z,97.15
2023-08-16T23:29:40.601Z,97.67
2023-08-16T23:32:20.817Z,100.00
2023-08-16T23:35:01.891Z,100.00
2023-08-16T23:37:42.234Z,100.00
2023-08-16T23:40:22.436Z,100.00
2023-08-16T23:43:02.668Z,100.00
2023-08-16T23:45:43.048Z,99.68
2023-08-16T23:48:23.231Z,98.67
2023-08-16T23:51:03.358Z,100.00
2023-08-16T23:53:43.579Z,100.00
2023-08-16T23:56:24.628Z,100.00
2023-08-16T23:59:05.400Z,100.00
